sensor_id;sensor_type;location;lat;lon;timestamp;pressure;altitude;pressure_sealevel;temperature;humidity
64889;BME280;51386;53.082;8.816;2023-12-04T00:00:13;101676.72;;;3.18;65.17
64889;BME280;51386;53.082;8.816;2023-12-04T00:02:43;101670.56;;;3.19;64.88
64889;BME280;51386;53.082;8.816;2023-12-04T00:05:11;101662.88;;;3.18;64.61
64889;BME280;51386;53.082;8.816;2023-12-04T00:07:39;101661.19;;;3.17;64.34
64889;BME280;51386;53.082;8.816;2023-12-04T00:10:08;101659.53;;;3.16;64.62
64889;BME280;51386;53.082;8.816;2023-12-04T00:12:37;101665.13;;;3.10;64.05
64889;BME280;51386;53.082;8.816;2023-12-04T00:15:06;101665.75;;;3.01;64.10
64889;BME280;51386;53.082;8.816;2023-12-04T00:17:34;101649.84;;;2.93;64.12
64889;BME280;51386;53.082;8.816;2023-12-04T00:20:09;101641.22;;;2.92;64.72
64889;BME280;51386;53.082;8.816;2023-12-04T00:22:38;101635.91;;;2.94;64.62
64889;BME280;51386;53.082;8.816;2023-12-04T00:25:07;101630.41;;;2.86;64.36
64889;BME280;51386;53.082;8.816;2023-12-04T00:27:35;101636.53;;;2.85;64.36
64889;BME280;51386;53.082;8.816;2023-12-04T00:30:04;101627.78;;;2.86;64.67
64889;BME280;51386;53.082;8.816;2023-12-04T00:32:34;101625.41;;;2.83;64.30
64889;BME280;51386;53.082;8.816;2023-12-04T00:35:02;101614.50;;;2.78;64.15
64889;BME280;51386;53.082;8.816;2023-12-04T00:37:31;101613.56;;;2.79;64.27
64889;BME280;51386;53.082;8.816;2023-12-04T00:39:59;101609.31;;;2.78;64.50
64889;BME280;51386;53.082;8.816;2023-12-04T00:42:28;101601.72;;;2.74;64.36
64889;BME280;51386;53.082;8.816;2023-12-04T00:44:57;101601.28;;;2.68;64.16
64889;BME280;51386;53.082;8.816;2023-12-04T00:47:25;101607.53;;;2.65;64.38
64889;BME280;51386;53.082;8.816;2023-12-04T00:49:54;101605.84;;;2.64;64.79
64889;BME280;51386;53.082;8.816;2023-12-04T00:52:22;101599.94;;;2.62;64.75
64889;BME280;51386;53.082;8.816;2023-12-04T00:54:51;101596.28;;;2.65;64.72
64889;BME280;51386;53.082;8.816;2023-12-04T00:57:19;101589.22;;;2.67;64.51
64889;BME280;51386;53.082;8.816;2023-12-04T00:59:48;101589.88;;;2.70;64.58
64889;BME280;51386;53.082;8.816;2023-12-04T01:02:17;101589.63;;;2.73;64.48
64889;BME280;51386;53.082;8.816;2023-12-04T01:04:45;101588.72;;;2.74;64.33
64889;BME280;51386;53.082;8.816;2023-12-04T01:07:14;101580.91;;;2.74;64.47
64889;BME280;51386;53.082;8.816;2023-12-04T01:09:43;101573.66;;;2.80;64.44
64889;BME280;51386;53.082;8.816;2023-12-04T01:12:11;101573.00;;;2.76;64.35
64889;BME280;51386;53.082;8.816;2023-12-04T01:14:40;101571.88;;;2.80;64.36
64889;BME280;51386;53.082;8.816;2023-12-04T01:17:08;101564.91;;;2.81;64.14
64889;BME280;51386;53.082;8.816;2023-12-04T01:19:36;101561.38;;;2.82;64.39
64889;BME280;51386;53.082;8.816;2023-12-04T01:22:05;101562.72;;;2.87;64.46
64889;BME280;51386;53.082;8.816;2023-12-04T01:24:34;101564.06;;;2.93;64.15
64889;BME280;51386;53.082;8.816;2023-12-04T01:27:02;101563.84;;;2.96;64.15
64889;BME280;51386;53.082;8.816;2023-12-04T01:29:30;101557.00;;;2.95;64.04
64889;BME280;51386;53.082;8.816;2023-12-04T01:32:00;101558.06;;;2.92;64.19
64889;BME280;51386;53.082;8.816;2023-12-04T01:34:28;101545.16;;;2.91;64.04
64889;BME280;51386;53.082;8.816;2023-12-04T01:36:57;101545.25;;;2.89;64.06
64889;BME280;51386;53.082;8.816;2023-12-04T01:39:26;101545.66;;;2.83;64.32
64889;BME280;51386;53.082;8.816;2023-12-04T01:41:54;101545.97;;;2.79;64.51
64889;BME280;51386;53.082;8.816;2023-12-04T01:44:22;101537.97;;;2.82;64.58
64889;BME280;51386;53.082;8.816;2023-12-04T01:46:52;101538.69;;;2.84;64.53
64889;BME280;51386;53.082;8.816;2023-12-04T01:49:20;101544.94;;;2.81;64.48
64889;BME280;51386;53.082;8.816;2023-12-04T01:51:49;101539.13;;;2.78;64.48
64889;BME280;51386;53.082;8.816;2023-12-04T01:54:17;101539.34;;;2.74;64.64
64889;BME280;51386;53.082;8.816;2023-12-04T01:56:47;101532.69;;;2.70;64.83
64889;BME280;51386;53.082;8.816;2023-12-04T01:59:16;101526.66;;;2.70;64.86
64889;BME280;51386;53.082;8.816;2023-12-04T02:01:44;101529.97;;;2.72;65.18
64889;BME280;51386;53.082;8.816;2023-12-04T02:04:13;101541.22;;;2.72;65.14
64889;BME280;51386;53.082;8.816;2023-12-04T02:06:41;101534.13;;;2.74;65.40
64889;BME280;51386;53.082;8.816;2023-12-04T02:09:10;101523.44;;;2.79;65.31
64889;BME280;51386;53.082;8.816;2023-12-04T02:11:44;101522.91;;;2.87;65.16
64889;BME280;51386;53.082;8.816;2023-12-04T02:14:12;101520.44;;;2.85;65.11
64889;BME280;51386;53.082;8.816;2023-12-04T02:16:42;101513.94;;;2.91;65.34
64889;BME280;51386;53.082;8.816;2023-12-04T02:19:12;101511.88;;;2.96;65.32
64889;BME280;51386;53.082;8.816;2023-12-04T02:21:42;101511.66;;;2.99;65.45
64889;BME280;51386;53.082;8.816;2023-12-04T02:24:10;101511.22;;;3.05;65.04
64889;BME280;51386;53.082;8.816;2023-12-04T02:26:52;101499.38;;;3.01;65.01
64889;BME280;51386;53.082;8.816;2023-12-04T02:29:30;101499.19;;;3.04;65.21
64889;BME280;51386;53.082;8.816;2023-12-04T02:32:03;101490.03;;;2.98;65.42
64889;BME280;51386;53.082;8.816;2023-12-04T02:34:35;101484.44;;;2.92;65.49
64889;BME280;51386;53.082;8.816;2023-12-04T02:37:05;101481.72;;;2.93;65.66
64889;BME280;51386;53.082;8.816;2023-12-04T02:39:36;101486.81;;;2.95;65.49
64889;BME280;51386;53.082;8.816;2023-12-04T02:42:06;101488.25;;;2.99;65.37
64889;BME280;51386;53.082;8.816;2023-12-04T02:44:34;101474.44;;;2.98;65.84
64889;BME280;51386;53.082;8.816;2023-12-04T02:47:03;101471.72;;;3.00;65.79
64889;BME280;51386;53.082;8.816;2023-12-04T02:49:31;101467.13;;;3.03;65.88
64889;BME280;51386;53.082;8.816;2023-12-04T02:51:59;101463.38;;;3.07;65.80
64889;BME280;51386;53.082;8.816;2023-12-04T02:54:28;101460.69;;;3.09;65.76
64889;BME280;51386;53.082;8.816;2023-12-04T02:56:56;101460.44;;;3.12;66.07
64889;BME280;51386;53.082;8.816;2023-12-04T02:59:25;101453.38;;;3.14;65.87
64889;BME280;51386;53.082;8.816;2023-12-04T03:01:53;101454.81;;;3.18;65.89
64889;BME280;51386;53.082;8.816;2023-12-04T03:04:21;101450.47;;;3.18;66.03
64889;BME280;51386;53.082;8.816;2023-12-04T03:06:50;101452.03;;;3.21;66.03
64889;BME280;51386;53.082;8.816;2023-12-04T03:09:18;101442.53;;;3.20;66.01
64889;BME280;51386;53.082;8.816;2023-12-04T03:12:26;101438.38;;;3.17;66.11
64889;BME280;51386;53.082;8.816;2023-12-04T03:14:55;101435.66;;;3.19;66.22
64889;BME280;51386;53.082;8.816;2023-12-04T03:17:24;101436.63;;;3.18;66.26
64889;BME280;51386;53.082;8.816;2023-12-04T03:19:53;101435.41;;;3.11;66.44
64889;BME280;51386;53.082;8.816;2023-12-04T03:22:21;101434.13;;;3.16;66.81
64889;BME280;51386;53.082;8.816;2023-12-04T03:24:49;101426.31;;;3.16;66.90
64889;BME280;51386;53.082;8.816;2023-12-04T03:27:18;101423.13;;;3.13;66.81
64889;BME280;51386;53.082;8.816;2023-12-04T03:29:46;101425.94;;;3.10;67.16
64889;BME280;51386;53.082;8.816;2023-12-04T03:32:14;101418.84;;;3.12;67.11
64889;BME280;51386;53.082;8.816;2023-12-04T03:34:43;101416.50;;;3.09;67.41
64889;BME280;51386;53.082;8.816;2023-12-04T03:37:11;101408.69;;;3.09;67.67
64889;BME280;51386;53.082;8.816;2023-12-04T03:39:39;101414.59;;;3.11;67.57
64889;BME280;51386;53.082;8.816;2023-12-04T03:42:08;101406.19;;;3.07;67.92
64889;BME280;51386;53.082;8.816;2023-12-04T03:44:36;101405.13;;;3.10;68.05
64889;BME280;51386;53.082;8.816;2023-12-04T03:47:05;101407.84;;;3.08;67.91
64889;BME280;51386;53.082;8.816;2023-12-04T03:49:33;101392.03;;;3.11;68.16
64889;BME280;51386;53.082;8.816;2023-12-04T03:52:01;101404.91;;;3.13;68.33
64889;BME280;51386;53.082;8.816;2023-12-04T03:54:30;101393.34;;;3.17;68.07
64889;BME280;51386;53.082;8.816;2023-12-04T03:56:58;101398.13;;;3.23;67.89
64889;BME280;51386;53.082;8.816;2023-12-04T03:59:27;101393.41;;;3.28;67.87
64889;BME280;51386;53.082;8.816;2023-12-04T04:01:55;101394.94;;;3.30;67.96
64889;BME280;51386;53.082;8.816;2023-12-04T04:04:24;101390.56;;;3.31;67.75
64889;BME280;51386;53.082;8.816;2023-12-04T04:06:53;101385.50;;;3.29;67.91
64889;BME280;51386;53.082;8.816;2023-12-04T04:09:21;101384.06;;;3.25;68.22
64889;BME280;51386;53.082;8.816;2023-12-04T04:11:50;101380.84;;;3.22;68.63
64889;BME280;51386;53.082;8.816;2023-12-04T04:14:19;101378.03;;;3.25;68.69
64889;BME280;51386;53.082;8.816;2023-12-04T04:16:47;101372.81;;;3.25;68.65
64889;BME280;51386;53.082;8.816;2023-12-04T04:19:15;101370.94;;;3.27;68.59
64889;BME280;51386;53.082;8.816;2023-12-04T04:21:44;101380.41;;;3.28;69.08
64889;BME280;51386;53.082;8.816;2023-12-04T04:24:13;101364.81;;;3.28;68.76
64889;BME280;51386;53.082;8.816;2023-12-04T04:26:41;101365.28;;;3.33;68.68
64889;BME280;51386;53.082;8.816;2023-12-04T04:29:10;101357.47;;;3.33;68.69
64889;BME280;51386;53.082;8.816;2023-12-04T04:31:38;101370.47;;;3.33;68.83
64889;BME280;51386;53.082;8.816;2023-12-04T04:34:07;101358.44;;;3.32;68.94
64889;BME280;51386;53.082;8.816;2023-12-04T04:36:35;101358.22;;;3.35;69.25
64889;BME280;51386;53.082;8.816;2023-12-04T04:39:03;101356.31;;;3.37;68.99
64889;BME280;51386;53.082;8.816;2023-12-04T04:41:33;101346.50;;;3.40;69.21
64889;BME280;51386;53.082;8.816;2023-12-04T04:44:01;101342.81;;;3.32;69.29
64889;BME280;51386;53.082;8.816;2023-12-04T04:46:29;101342.34;;;3.27;69.40
64889;BME280;51386;53.082;8.816;2023-12-04T04:48:58;101344.31;;;3.23;69.72
64889;BME280;51386;53.082;8.816;2023-12-04T04:51:28;101340.19;;;3.21;69.75
64889;BME280;51386;53.082;8.816;2023-12-04T04:53:57;101342.88;;;3.19;69.94
64889;BME280;51386;53.082;8.816;2023-12-04T04:56:25;101335.22;;;3.18;69.87
64889;BME280;51386;53.082;8.816;2023-12-04T04:58:54;101335.81;;;3.21;69.72
64889;BME280;51386;53.082;8.816;2023-12-04T05:01:22;101333.09;;;3.23;69.85
64889;BME280;51386;53.082;8.816;2023-12-04T05:03:51;101331.00;;;3.28;69.58
64889;BME280;51386;53.082;8.816;2023-12-04T05:06:19;101326.59;;;3.28;69.49
64889;BME280;51386;53.082;8.816;2023-12-04T05:08:51;101324.13;;;3.27;69.86
64889;BME280;51386;53.082;8.816;2023-12-04T05:11:20;101321.03;;;3.22;69.88
64889;BME280;51386;53.082;8.816;2023-12-04T05:13:48;101321.25;;;3.19;69.68
64889;BME280;51386;53.082;8.816;2023-12-04T05:16:17;101320.44;;;3.18;70.04
64889;BME280;51386;53.082;8.816;2023-12-04T05:18:45;101312.31;;;3.23;69.96
64889;BME280;51386;53.082;8.816;2023-12-04T05:21:14;101309.22;;;3.18;69.71
64889;BME280;51386;53.082;8.816;2023-12-04T05:23:42;101304.00;;;3.18;69.83
64889;BME280;51386;53.082;8.816;2023-12-04T05:26:10;101303.16;;;3.17;69.90
64889;BME280;51386;53.082;8.816;2023-12-04T05:28:39;101302.34;;;3.17;69.87
64889;BME280;51386;53.082;8.816;2023-12-04T05:31:07;101309.78;;;3.21;69.91
64889;BME280;51386;53.082;8.816;2023-12-04T05:33:36;101303.53;;;3.24;70.03
64889;BME280;51386;53.082;8.816;2023-12-04T05:36:09;101297.63;;;3.22;69.80
64889;BME280;51386;53.082;8.816;2023-12-04T05:38:37;101301.91;;;3.23;69.95
64889;BME280;51386;53.082;8.816;2023-12-04T05:41:06;101297.63;;;3.22;70.09
64889;BME280;51386;53.082;8.816;2023-12-04T05:43:34;101300.44;;;3.19;70.06
64889;BME280;51386;53.082;8.816;2023-12-04T05:46:03;101298.59;;;3.21;70.22
64889;BME280;51386;53.082;8.816;2023-12-04T05:48:31;101300.22;;;3.22;70.28
64889;BME280;51386;53.082;8.816;2023-12-04T05:51:00;101301.19;;;3.21;70.13
64889;BME280;51386;53.082;8.816;2023-12-04T05:53:28;101297.50;;;3.23;70.17
64889;BME280;51386;53.082;8.816;2023-12-04T05:55:57;101299.78;;;3.28;70.18
64889;BME280;51386;53.082;8.816;2023-12-04T05:58:25;101291.03;;;3.29;70.21
64889;BME280;51386;53.082;8.816;2023-12-04T06:00:54;101291.88;;;3.29;69.96
64889;BME280;51386;53.082;8.816;2023-12-04T06:03:22;101290.81;;;3.32;70.15
64889;BME280;51386;53.082;8.816;2023-12-04T06:05:50;101296.38;;;3.38;69.87
64889;BME280;51386;53.082;8.816;2023-12-04T06:08:23;101286.34;;;3.45;70.12
64889;BME280;51386;53.082;8.816;2023-12-04T06:10:54;101283.38;;;3.50;69.87
64889;BME280;51386;53.082;8.816;2023-12-04T06:13:24;101282.09;;;3.44;69.59
64889;BME280;51386;53.082;8.816;2023-12-04T06:15:52;101282.78;;;3.46;70.06
64889;BME280;51386;53.082;8.816;2023-12-04T06:18:21;101277.38;;;3.49;69.70
64889;BME280;51386;53.082;8.816;2023-12-04T06:20:51;101272.16;;;3.49;69.57
64889;BME280;51386;53.082;8.816;2023-12-04T06:23:20;101269.09;;;3.44;69.86
64889;BME280;51386;53.082;8.816;2023-12-04T06:25:48;101279.50;;;3.44;70.03
64889;BME280;51386;53.082;8.816;2023-12-04T06:28:17;101272.38;;;3.46;69.95
64889;BME280;51386;53.082;8.816;2023-12-04T06:30:46;101275.34;;;3.41;69.80
64889;BME280;51386;53.082;8.816;2023-12-04T06:33:15;101259.47;;;3.33;70.13
64889;BME280;51386;53.082;8.816;2023-12-04T06:35:46;101259.81;;;3.29;69.96
64889;BME280;51386;53.082;8.816;2023-12-04T06:38:15;101255.09;;;3.23;70.08
64889;BME280;51386;53.082;8.816;2023-12-04T06:40:45;101255.31;;;3.20;70.31
64889;BME280;51386;53.082;8.816;2023-12-04T06:43:14;101256.38;;;3.17;70.69
64889;BME280;51386;53.082;8.816;2023-12-04T06:45:46;101255.75;;;3.14;70.87
64889;BME280;51386;53.082;8.816;2023-12-04T06:48:15;101263.69;;;3.12;70.69
64889;BME280;51386;53.082;8.816;2023-12-04T06:50:44;101261.19;;;3.11;70.97
64889;BME280;51386;53.082;8.816;2023-12-04T06:53:12;101257.41;;;3.15;70.77
64889;BME280;51386;53.082;8.816;2023-12-04T06:55:41;101259.09;;;3.16;70.84
64889;BME280;51386;53.082;8.816;2023-12-04T06:58:09;101259.19;;;3.14;70.41
64889;BME280;51386;53.082;8.816;2023-12-04T07:00:37;101253.50;;;3.09;70.38
64889;BME280;51386;53.082;8.816;2023-12-04T07:03:06;101260.00;;;3.04;70.58
64889;BME280;51386;53.082;8.816;2023-12-04T07:05:34;101257.28;;;3.05;70.70
64889;BME280;51386;53.082;8.816;2023-12-04T07:08:03;101255.88;;;3.12;70.59
64889;BME280;51386;53.082;8.816;2023-12-04T07:10:31;101262.63;;;3.15;70.08
64889;BME280;51386;53.082;8.816;2023-12-04T07:13:01;101261.44;;;3.19;70.10
64889;BME280;51386;53.082;8.816;2023-12-04T07:15:29;101257.91;;;3.20;69.88
64889;BME280;51386;53.082;8.816;2023-12-04T07:17:58;101254.25;;;3.22;69.99
64889;BME280;51386;53.082;8.816;2023-12-04T07:20:26;101247.78;;;3.28;69.74
64889;BME280;51386;53.082;8.816;2023-12-04T07:22:55;101257.00;;;3.32;69.32
64889;BME280;51386;53.082;8.816;2023-12-04T07:25:25;101250.16;;;3.42;69.35
64889;BME280;51386;53.082;8.816;2023-12-04T07:27:54;101255.38;;;3.42;69.02
64889;BME280;51386;53.082;8.816;2023-12-04T07:30:22;101249.44;;;3.40;68.43
64889;BME280;51386;53.082;8.816;2023-12-04T07:32:52;101243.28;;;3.41;68.64
64889;BME280;51386;53.082;8.816;2023-12-04T07:35:21;101243.91;;;3.45;68.58
64889;BME280;51386;53.082;8.816;2023-12-04T07:37:50;101245.53;;;3.46;68.11
64889;BME280;51386;53.082;8.816;2023-12-04T07:40:18;101241.66;;;3.51;68.04
64889;BME280;51386;53.082;8.816;2023-12-04T07:42:46;101245.81;;;3.54;67.91
64889;BME280;51386;53.082;8.816;2023-12-04T07:45:15;101246.63;;;3.54;67.69
64889;BME280;51386;53.082;8.816;2023-12-04T07:47:44;101245.44;;;3.58;67.48
64889;BME280;51386;53.082;8.816;2023-12-04T07:50:12;101240.81;;;3.62;66.93
64889;BME280;51386;53.082;8.816;2023-12-04T07:52:40;101252.78;;;3.64;67.11
64889;BME280;51386;53.082;8.816;2023-12-04T07:55:09;101249.94;;;3.67;66.77
64889;BME280;51386;53.082;8.816;2023-12-04T07:57:37;101244.72;;;3.67;66.55
64889;BME280;51386;53.082;8.816;2023-12-04T08:00:06;101245.91;;;3.74;66.24
64889;BME280;51386;53.082;8.816;2023-12-04T08:02:38;101240.47;;;3.77;65.94
64889;BME280;51386;53.082;8.816;2023-12-04T08:05:06;101245.56;;;3.79;65.39
64889;BME280;51386;53.082;8.816;2023-12-04T08:07:37;101240.97;;;3.82;65.62
64889;BME280;51386;53.082;8.816;2023-12-04T08:10:06;101240.13;;;3.82;64.54
64889;BME280;51386;53.082;8.816;2023-12-04T08:12:35;101233.16;;;3.82;64.77
64889;BME280;51386;53.082;8.816;2023-12-04T08:15:05;101231.97;;;3.86;64.51
64889;BME280;51386;53.082;8.816;2023-12-04T08:17:34;101240.34;;;3.90;64.51
64889;BME280;51386;53.082;8.816;2023-12-04T08:20:03;101220.94;;;3.94;64.58
64889;BME280;51386;53.082;8.816;2023-12-04T08:22:32;101225.31;;;3.93;63.91
64889;BME280;51386;53.082;8.816;2023-12-04T08:25:00;101234.44;;;3.99;64.17
64889;BME280;51386;53.082;8.816;2023-12-04T08:27:29;101222.50;;;3.96;63.55
64889;BME280;51386;53.082;8.816;2023-12-04T08:30:00;101225.19;;;3.95;63.72
64889;BME280;51386;53.082;8.816;2023-12-04T08:32:30;101217.97;;;3.98;63.45
64889;BME280;51386;53.082;8.816;2023-12-04T08:34:58;101213.00;;;3.95;63.04
64889;BME280;51386;53.082;8.816;2023-12-04T08:37:26;101217.75;;;4.01;63.39
64889;BME280;51386;53.082;8.816;2023-12-04T08:39:55;101215.25;;;4.00;62.80
64889;BME280;51386;53.082;8.816;2023-12-04T08:42:24;101216.56;;;3.94;62.47
64889;BME280;51386;53.082;8.816;2023-12-04T08:44:52;101205.91;;;3.97;62.91
64889;BME280;51386;53.082;8.816;2023-12-04T08:47:21;101207.81;;;3.95;62.70
64889;BME280;51386;53.082;8.816;2023-12-04T08:49:49;101208.50;;;3.97;62.84
64889;BME280;51386;53.082;8.816;2023-12-04T08:52:18;101201.75;;;3.95;62.69
64889;BME280;51386;53.082;8.816;2023-12-04T08:54:46;101207.56;;;3.98;62.28
64889;BME280;51386;53.082;8.816;2023-12-04T08:57:15;101199.53;;;4.01;62.56
64889;BME280;51386;53.082;8.816;2023-12-04T08:59:43;101198.56;;;4.02;62.00
64889;BME280;51386;53.082;8.816;2023-12-04T09:02:12;101199.97;;;4.06;62.06
64889;BME280;51386;53.082;8.816;2023-12-04T09:04:41;101196.41;;;4.07;61.92
64889;BME280;51386;53.082;8.816;2023-12-04T09:07:10;101187.91;;;4.05;61.72
64889;BME280;51386;53.082;8.816;2023-12-04T09:09:59;101180.22;;;4.04;61.91
64889;BME280;51386;53.082;8.816;2023-12-04T09:12:36;101182.00;;;4.03;61.68
64889;BME280;51386;53.082;8.816;2023-12-04T09:15:06;101188.84;;;4.04;62.01
64889;BME280;51386;53.082;8.816;2023-12-04T09:17:35;101185.06;;;3.97;62.00
64889;BME280;51386;53.082;8.816;2023-12-04T09:20:07;101184.50;;;3.94;61.95
64889;BME280;51386;53.082;8.816;2023-12-04T09:22:38;101185.06;;;3.97;61.83
64889;BME280;51386;53.082;8.816;2023-12-04T09:25:11;101197.53;;;3.94;61.35
64889;BME280;51386;53.082;8.816;2023-12-04T09:27:39;101186.97;;;3.95;61.86
64889;BME280;51386;53.082;8.816;2023-12-04T09:30:08;101192.88;;;3.97;61.48
64889;BME280;51386;53.082;8.816;2023-12-04T09:32:37;101181.19;;;3.92;61.41
64889;BME280;51386;53.082;8.816;2023-12-04T09:35:06;101188.41;;;3.88;62.09
64889;BME280;51386;53.082;8.816;2023-12-04T09:37:35;101193.47;;;3.90;61.71
64889;BME280;51386;53.082;8.816;2023-12-04T09:40:05;101192.41;;;3.92;62.01
64889;BME280;51386;53.082;8.816;2023-12-04T09:42:36;101192.19;;;3.95;61.70
64889;BME280;51386;53.082;8.816;2023-12-04T09:45:07;101188.38;;;3.99;61.17
64889;BME280;51386;53.082;8.816;2023-12-04T09:47:37;101179.63;;;4.00;61.53
64889;BME280;51386;53.082;8.816;2023-12-04T09:50:06;101175.25;;;4.01;61.41
64889;BME280;51386;53.082;8.816;2023-12-04T09:52:36;101179.88;;;3.97;60.97
64889;BME280;51386;53.082;8.816;2023-12-04T09:55:05;101168.00;;;4.04;61.34
64889;BME280;51386;53.082;8.816;2023-12-04T09:57:34;101158.53;;;4.15;61.25
64889;BME280;51386;53.082;8.816;2023-12-04T10:00:03;101156.63;;;4.17;61.06
64889;BME280;51386;53.082;8.816;2023-12-04T10:02:34;101160.06;;;4.17;60.93
64889;BME280;51386;53.082;8.816;2023-12-04T10:05:05;101155.44;;;4.21;60.34
64889;BME280;51386;53.082;8.816;2023-12-04T10:07:34;101154.34;;;4.23;60.25
64889;BME280;51386;53.082;8.816;2023-12-04T10:10:06;101150.19;;;4.63;59.66
64889;BME280;51386;53.082;8.816;2023-12-04T10:12:36;101142.00;;;4.57;59.32
64889;BME280;51386;53.082;8.816;2023-12-04T10:15:09;101150.91;;;4.54;59.17
64889;BME280;51386;53.082;8.816;2023-12-04T10:17:41;101145.22;;;4.60;59.64
64889;BME280;51386;53.082;8.816;2023-12-04T10:20:15;101138.47;;;4.58;59.45
64889;BME280;51386;53.082;8.816;2023-12-04T10:22:57;101131.09;;;4.63;59.43
64889;BME280;51386;53.082;8.816;2023-12-04T10:25:30;101132.72;;;4.64;59.03
64889;BME280;51386;53.082;8.816;2023-12-04T10:28:12;101133.69;;;4.63;58.96
64889;BME280;51386;53.082;8.816;2023-12-04T10:30:42;101125.75;;;4.64;58.96
64889;BME280;51386;53.082;8.816;2023-12-04T10:33:11;101128.50;;;4.63;58.70
64889;BME280;51386;53.082;8.816;2023-12-04T10:35:40;101116.63;;;4.59;58.73
64889;BME280;51386;53.082;8.816;2023-12-04T10:38:09;101112.16;;;4.61;59.27
64889;BME280;51386;53.082;8.816;2023-12-04T10:40:37;101117.09;;;4.64;58.94
64889;BME280;51386;53.082;8.816;2023-12-04T10:45:39;101105.94;;;4.73;58.28
64889;BME280;51386;53.082;8.816;2023-12-04T10:48:09;101105.66;;;4.76;58.21
64889;BME280;51386;53.082;8.816;2023-12-04T10:50:50;101093.59;;;4.75;58.38
64889;BME280;51386;53.082;8.816;2023-12-04T10:53:20;101090.00;;;4.76;57.96
64889;BME280;51386;53.082;8.816;2023-12-04T10:55:53;101089.31;;;4.74;57.88
64889;BME280;51386;53.082;8.816;2023-12-04T10:58:26;101085.06;;;4.73;57.81
64889;BME280;51386;53.082;8.816;2023-12-04T11:00:57;101079.22;;;4.60;57.79
64889;BME280;51386;53.082;8.816;2023-12-04T11:03:40;101078.97;;;4.63;57.91
64889;BME280;51386;53.082;8.816;2023-12-04T11:06:21;101083.91;;;4.66;57.96
64889;BME280;51386;53.082;8.816;2023-12-04T11:08:52;101074.06;;;4.69;57.30
64889;BME280;51386;53.082;8.816;2023-12-04T11:11:31;101072.97;;;4.72;57.71
64889;BME280;51386;53.082;8.816;2023-12-04T11:14:06;101063.38;;;4.72;57.07
64889;BME280;51386;53.082;8.816;2023-12-04T11:16:48;101068.06;;;4.78;57.30
64889;BME280;51386;53.082;8.816;2023-12-04T11:19:36;101057.94;;;4.85;57.40
64889;BME280;51386;53.082;8.816;2023-12-04T11:22:09;101056.59;;;4.91;56.75
64889;BME280;51386;53.082;8.816;2023-12-04T11:24:39;101048.63;;;4.92;56.31
64889;BME280;51386;53.082;8.816;2023-12-04T11:27:09;101056.09;;;4.97;56.61
64889;BME280;51386;53.082;8.816;2023-12-04T11:29:38;101046.22;;;5.00;56.09
64889;BME280;51386;53.082;8.816;2023-12-04T11:32:07;101042.81;;;5.09;56.58
64889;BME280;51386;53.082;8.816;2023-12-04T11:34:36;101045.44;;;5.09;55.96
64889;BME280;51386;53.082;8.816;2023-12-04T11:37:04;101043.50;;;5.11;56.22
64889;BME280;51386;53.082;8.816;2023-12-04T11:39:35;101042.69;;;5.11;56.08
64889;BME280;51386;53.082;8.816;2023-12-04T11:42:06;101038.69;;;5.07;55.42
64889;BME280;51386;53.082;8.816;2023-12-04T11:44:35;101045.56;;;5.08;55.64
64889;BME280;51386;53.082;8.816;2023-12-04T11:47:05;101033.03;;;5.02;55.36
64889;BME280;51386;53.082;8.816;2023-12-04T11:49:34;101034.69;;;5.03;55.72
64889;BME280;51386;53.082;8.816;2023-12-04T11:52:04;101027.56;;;5.05;55.92
64889;BME280;51386;53.082;8.816;2023-12-04T11:54:59;101021.50;;;5.04;55.68
64889;BME280;51386;53.082;8.816;2023-12-04T11:57:35;101017.41;;;5.11;55.85
64889;BME280;51386;53.082;8.816;2023-12-04T12:00:19;101006.47;;;5.17;55.72
64889;BME280;51386;53.082;8.816;2023-12-04T12:05:41;100999.94;;;5.32;55.40
64889;BME280;51386;53.082;8.816;2023-12-04T12:08:11;101004.84;;;5.35;55.42
64889;BME280;51386;53.082;8.816;2023-12-04T12:10:39;100994.00;;;5.40;55.19
64889;BME280;51386;53.082;8.816;2023-12-04T12:13:10;100996.22;;;5.44;55.08
64889;BME280;51386;53.082;8.816;2023-12-04T12:15:38;100997.63;;;5.48;54.78
64889;BME280;51386;53.082;8.816;2023-12-04T12:18:07;100997.72;;;5.47;54.96
64889;BME280;51386;53.082;8.816;2023-12-04T12:20:38;100991.13;;;5.43;55.19
64889;BME280;51386;53.082;8.816;2023-12-04T12:23:06;100982.06;;;5.47;55.14
64889;BME280;51386;53.082;8.816;2023-12-04T12:25:36;100978.50;;;5.48;55.00
64889;BME280;51386;53.082;8.816;2023-12-04T12:28:05;100982.88;;;5.38;54.25
64889;BME280;51386;53.082;8.816;2023-12-04T12:30:33;100978.50;;;5.38;54.68
64889;BME280;51386;53.082;8.816;2023-12-04T12:33:02;100974.94;;;5.39;54.69
64889;BME280;51386;53.082;8.816;2023-12-04T12:35:31;100971.09;;;5.43;54.57
64889;BME280;51386;53.082;8.816;2023-12-04T12:37:59;100963.69;;;5.48;54.57
64889;BME280;51386;53.082;8.816;2023-12-04T12:40:28;100956.53;;;5.51;54.68
64889;BME280;51386;53.082;8.816;2023-12-04T12:43:08;100956.38;;;5.52;54.26
64889;BME280;51386;53.082;8.816;2023-12-04T12:45:44;100957.38;;;5.51;53.98
64889;BME280;51386;53.082;8.816;2023-12-04T12:48:17;100954.59;;;5.53;54.29
64889;BME280;51386;53.082;8.816;2023-12-04T12:50:48;100950.75;;;5.57;54.39
64889;BME280;51386;53.082;8.816;2023-12-04T12:53:18;100955.28;;;5.55;54.31
64889;BME280;51386;53.082;8.816;2023-12-04T12:55:47;100951.59;;;5.47;54.34
64889;BME280;51386;53.082;8.816;2023-12-04T12:58:16;100943.63;;;5.49;54.67
64889;BME280;51386;53.082;8.816;2023-12-04T13:00:48;100942.50;;;5.52;54.84
64889;BME280;51386;53.082;8.816;2023-12-04T13:03:18;100933.31;;;5.47;54.37
64889;BME280;51386;53.082;8.816;2023-12-04T13:05:47;100940.31;;;5.37;54.48
64889;BME280;51386;53.082;8.816;2023-12-04T13:08:16;100933.72;;;5.33;54.84
64889;BME280;51386;53.082;8.816;2023-12-04T13:10:44;100934.81;;;5.21;54.78
64889;BME280;51386;53.082;8.816;2023-12-04T13:13:14;100935.06;;;5.18;54.78
64889;BME280;51386;53.082;8.816;2023-12-04T13:15:43;100927.66;;;5.14;55.15
64889;BME280;51386;53.082;8.816;2023-12-04T13:18:11;100921.19;;;5.08;55.07